ADDS METAR Data INFO
IDs: Format: Raw Decoded Include TAF

Data at: 1746 UTC 21 Oct 2017

KTLH 211653Z 11009G18KT 10SM SCT040 BKN250 28/18 A3018 RMK AO2 SLP219 T02830183
KTLH 211553Z 08011KT 10SM FEW040 BKN250 28/19 A3019 RMK AO2 SLP223 T02780194
KTLH 211453Z 09011KT 10SM BKN250 26/20 A3020 RMK AO2 SLP225 T02560200 50013
KTLH 211353Z 09011KT 10SM BKN250 23/19 A3020 RMK AO2 SLP226 T02280189
KTLH 211253Z 08008KT 10SM BKN250 21/19 A3019 RMK AO2 SLP221 T02060189
KTLH 211153Z 07009KT 10SM SCT031 SCT250 20/18 A3016 RMK AO2 SLP213 T02000183 10211 20200 51010
KTLH 211053Z 08007KT 10SM SCT031 20/19 A3016 RMK AO2 SLP211 T02000189
KTLH 210953Z 07006KT 10SM CLR 20/19 A3015 RMK AO2 SLP207 T02000189
KTLH 210853Z AUTO 07004KT 10SM CLR 20/19 A3013 RMK AO2 SLP203 T02000189 55003
KTLH 210753Z AUTO 09006KT 10SM CLR 21/19 A3013 RMK AO2 SLP202 T02060189
KTLH 210653Z AUTO 08008KT 10SM CLR 21/19 A3013 RMK AO2 SLP202 T02110189
KTLH 210553Z AUTO 09007KT 10SM CLR 21/19 A3014 RMK AO2 SLP206 T02060189 10244 20206 58004
KTLH 210453Z AUTO 09007KT 10SM CLR 21/18 A3015 RMK AO2 SLP209 T02110183 403000156
KTLH 210353Z AUTO 09008KT 10SM CLR 22/18 A3016 RMK AO2 SLP212 T02220183
KTLH 210253Z 09009KT 10SM FEW043 BKN250 23/18 A3015 RMK AO2 SLP209 LAST T02280178 53015
KTLH 210153Z 07005KT 10SM SCT043 BKN250 23/16 A3014 RMK AO2 SLP204 T02280161
KTLH 210053Z 05003KT 10SM BKN250 23/17 A3011 RMK AO2 SLP196 T02330167
KTLH 202353Z 05005KT 10SM BKN250 24/17 A3011 RMK AO2 SLP195 T02440167 10300 20244 53003
KTLH 202253Z 06007KT 10SM FEW045 BKN250 27/16 A3010 RMK AO2 SLP192 T02670161
KTLH 202153Z 07010KT 10SM FEW050 BKN250 28/16 A3009 RMK AO2 SLP190 T02830156
KTLH 202053Z 07011G16KT 10SM FEW055 BKN250 29/16 A3010 RMK AO2 SLP191 FU S OF AP T02940156 56018
KTLH 201953Z 08012KT 10SM FEW040 SCT250 29/15 A3011 RMK AO2 SLP196 FU S-SW OF AP T02940150
KTLH 201853Z 09010KT 10SM FEW010 SCT038 SCT250 29/17 A3013 RMK AO2 SLP200 FU FEW010 FU SE-SW OF AP T02890172
KTLH 201753Z VRB06KT 10SM FEW010 FEW035 SCT250 28/18 A3015 RMK AO2 SLP209 FU FEW010 FU SE-SW-W OF AP T02780183 10283 20178 58021
KTLH 201653Z 08007KT 040V100 10SM FEW010 FEW250 28/18 A3018 RMK AO2 SLP219 FU FEW010 FU S-W OF AP T02780183
KTLH 201553Z 08009KT 10SM FEW250 26/18 A3020 RMK AO2 SLP226 FU S-SW OF AP T02560178
KTLH 201453Z 08009KT 10SM FEW250 24/17 A3022 RMK AO2 SLP231 T02390167 50006
KTLH 201353Z COR 07010KT 10SM FEW250 22/16 A3022 RMK AO2 SLP231 T02220156
KTLH 201253Z 07006KT 10SM FEW250 20/16 A3021 RMK AO2 SLP227 T02000161
KTLH 201153Z 06004KT 10SM FEW250 18/16 A3020 RMK AO2 SLP224 T01780156 10200 20156 53006
KTLH 201053Z 00000KT 10SM CLR 18/16 A3019 RMK AO2 SLP222 T01830156
KTLH 200953Z COR 06004KT 10SM CLR 19/16 A3019 RMK AO2 SLP220 T01890156
KTLH 200853Z AUTO 00000KT 10SM CLR 18/15 A3018 RMK AO2 SLP219 T01780150 53001
KTLH 200753Z AUTO 06005KT 10SM CLR 19/15 A3017 RMK AO2 SLP217 T01890150
KTLH 200653Z AUTO 00000KT 10SM CLR 17/14 A3017 RMK AO2 SLP217 T01670144
KTLH 200553Z AUTO 05004KT 10SM CLR 20/15 A3018 RMK AO2 SLP217 T02000150 10239 20200 58001